createdAt,value
2023-04-01T00:02:27.265Z,60.90
2023-04-01T00:05:44.219Z,60.71
2023-04-01T00:08:12.711Z,60.85
2023-04-01T00:10:50.093Z,59.74
2023-04-01T00:13:38.696Z,59.48
2023-04-01T00:16:20.997Z,59.76
2023-04-01T00:19:13.535Z,62.07
2023-04-01T00:21:44.588Z,65.74
2023-04-01T00:24:13.020Z,65.99
2023-04-01T00:26:43.344Z,66.18
2023-04-01T00:29:13.940Z,65.49
2023-04-01T00:31:45.656Z,64.30
2023-04-01T00:34:16.995Z,63.26
2023-04-01T00:36:45.073Z,62.83
2023-04-01T00:39:13.421Z,62.41
2023-04-01T00:41:50.653Z,61.72
2023-04-01T00:44:27.372Z,61.55
2023-04-01T00:47:04.965Z,61.30
2023-04-01T00:49:41.725Z,61.26
2023-04-01T00:52:11.297Z,61.01
2023-04-01T00:55:03.013Z,60.75
2023-04-01T00:57:52.850Z,60.55
2023-04-01T01:00:22.479Z,60.74
2023-04-01T01:03:34.044Z,60.77
2023-04-01T01:07:08.449Z,60.31
2023-04-01T01:10:13.174Z,58.86
2023-04-01T01:13:44.160Z,58.91
2023-04-01T01:16:21.578Z,61.94
2023-04-01T01:19:49.332Z,65.20
2023-04-01T01:22:54.253Z,66.22
2023-04-01T01:25:45.063Z,64.74
2023-04-01T01:28:48.627Z,63.77
2023-04-01T01:32:03.381Z,63.12
2023-04-01T01:35:16.988Z,62.57
2023-04-01T01:37:45.342Z,61.74
2023-04-01T01:40:46.664Z,61.67
2023-04-01T01:43:17.660Z,61.00
2023-04-01T01:46:12.203Z,61.13
2023-04-01T01:49:01.853Z,60.66
2023-04-01T01:51:44.269Z,60.63
2023-04-01T01:54:56.017Z,60.56
2023-04-01T01:57:35.172Z,60.55
2023-04-01T02:00:33.548Z,60.75
2023-04-01T02:04:03.008Z,60.92
2023-04-01T02:07:55.535Z,60.31
2023-04-01T02:10:24.598Z,60.52
2023-04-01T02:13:43.312Z,60.49
2023-04-01T02:17:27.865Z,60.56
2023-04-01T02:20:22.165Z,60.84
2023-04-01T02:23:34.137Z,61.08
2023-04-01T02:26:56.844Z,61.10
2023-04-01T02:29:37.617Z,60.11
2023-04-01T02:32:26.173Z,58.21
2023-04-01T02:35:23.832Z,57.29
2023-04-01T02:37:53.214Z,59.01
2023-04-01T02:40:21.624Z,59.63
2023-04-01T02:42:49.878Z,58.60
2023-04-01T02:45:23.746Z,58.23
2023-04-01T02:47:54.921Z,64.58
2023-04-01T02:50:22.998Z,69.89
2023-04-01T02:53:07.395Z,70.55
2023-04-01T02:55:35.836Z,67.68
2023-04-01T02:58:04.309Z,65.88
2023-04-01T03:00:52.871Z,64.46
2023-04-01T03:03:23.678Z,63.87
2023-04-01T03:05:56.487Z,63.47
2023-04-01T03:08:24.528Z,62.57
2023-04-01T03:10:52.734Z,62.70
2023-04-01T03:13:21.664Z,62.27
2023-04-01T03:15:49.924Z,62.25
2023-04-01T03:18:18.242Z,63.80
2023-04-01T03:20:48.903Z,63.88
2023-04-01T03:23:18.380Z,63.75
2023-04-01T03:25:59.488Z,63.78
2023-04-01T03:28:27.568Z,62.63
2023-04-01T03:30:59.198Z,62.84
2023-04-01T03:33:27.465Z,62.70
2023-04-01T03:35:55.758Z,62.83
2023-04-01T03:38:23.843Z,62.72
2023-04-01T03:40:52.250Z,62.59
2023-04-01T03:43:40.922Z,62.34
2023-04-01T03:46:09.339Z,62.17
2023-04-01T03:48:37.744Z,61.87
2023-04-01T03:51:09.509Z,61.13
2023-04-01T03:53:37.934Z,61.92
2023-04-01T03:56:08.012Z,61.93
2023-04-01T03:58:40.113Z,61.75
2023-04-01T04:01:17.297Z,61.91
2023-04-01T04:03:45.745Z,61.82
2023-04-01T04:06:14.761Z,61.76
2023-04-01T04:09:05.821Z,61.35
2023-04-01T04:11:36.867Z,61.37
2023-04-01T04:14:05.361Z,61.53
2023-04-01T04:16:53.721Z,61.41
2023-04-01T04:19:22.277Z,61.52
2023-04-01T04:22:13.432Z,60.63
2023-04-01T04:25:12.036Z,61.25
2023-04-01T04:28:02.509Z,61.32
2023-04-01T04:30:33.055Z,61.33
2023-04-01T04:33:01.312Z,61.32
2023-04-01T04:35:29.531Z,61.14
2023-04-01T04:38:30.278Z,60.79
2023-04-01T04:41:23.229Z,61.01
2023-04-01T04:43:56.856Z,60.97
2023-04-01T04:46:38.287Z,60.54
2023-04-01T04:49:47.249Z,60.82
2023-04-01T04:52:15.709Z,60.66
2023-04-01T04:54:49.252Z,60.76
2023-04-01T04:57:20.662Z,60.63
2023-04-01T05:00:06.542Z,60.54
2023-04-01T05:02:58.084Z,60.38
2023-04-01T05:06:06.614Z,60.16
2023-04-01T05:08:38.455Z,59.95
2023-04-01T05:14:21.146Z,59.92
2023-04-01T05:16:59.881Z,59.72
2023-04-01T05:19:51.936Z,59.25
2023-04-01T05:22:22.920Z,58.29
2023-04-01T05:24:51.365Z,58.84
2023-04-01T05:27:19.680Z,59.40
2023-04-01T05:29:48.243Z,60.74
2023-04-01T05:33:12.781Z,65.07
2023-04-01T05:35:41.852Z,67.43
2023-04-01T05:38:39.160Z,66.20
2023-04-01T05:41:56.149Z,64.52
2023-04-01T05:44:30.326Z,63.21
2023-04-01T05:47:26.804Z,62.52
2023-04-01T05:51:06.930Z,61.59
2023-04-01T05:53:36.338Z,61.84
2023-04-01T05:56:05.377Z,61.22
2023-04-01T05:58:38.475Z,60.90
2023-04-01T06:01:21.174Z,61.06
2023-04-01T06:03:50.066Z,60.95
2023-04-01T06:06:58.999Z,60.47
2023-04-01T06:09:44.046Z,60.40
2023-04-01T06:13:08.077Z,60.44
2023-04-01T06:15:40.330Z,60.43
2023-04-01T06:18:38.689Z,60.20
2023-04-01T06:21:50.614Z,59.79
2023-04-01T06:24:49.797Z,59.32
2023-04-01T06:27:50.275Z,57.59
2023-04-01T06:30:45.369Z,60.51
2023-04-01T06:33:33.593Z,63.59
2023-04-01T06:36:42.966Z,65.04
2023-04-01T06:39:33.102Z,63.82
2023-04-01T06:42:36.956Z,62.58
2023-04-01T06:46:46.138Z,60.66
2023-04-01T06:49:41.912Z,60.16
2023-04-01T06:53:14.198Z,59.85
2023-04-01T06:56:31.021Z,59.81
2023-04-01T06:59:32.796Z,59.47
2023-04-01T07:02:29.982Z,58.60
2023-04-01T07:04:59.165Z,62.44
2023-04-01T07:07:41.493Z,62.19
2023-04-01T07:10:44.940Z,61.68
2023-04-01T07:13:46.965Z,60.03
2023-04-01T07:16:34.321Z,59.73
2023-04-01T07:19:18.330Z,59.72
2023-04-01T07:22:29.894Z,61.53
2023-04-01T07:25:47.648Z,65.34
2023-04-01T07:28:44.712Z,63.24
2023-04-01T07:32:05.785Z,61.44
2023-04-01T07:35:24.153Z,59.75
2023-04-01T07:39:23.960Z,58.54
2023-04-01T07:42:29.152Z,62.76
2023-04-01T07:45:07.937Z,62.46
2023-04-01T07:48:15.959Z,60.56
2023-04-01T07:51:33.547Z,58.97
2023-04-01T07:55:06.154Z,57.76
2023-04-01T07:58:23.618Z,61.28
2023-04-01T08:01:04.006Z,63.15
2023-04-01T08:04:43.836Z,61.85
2023-04-01T08:08:25.828Z,59.64
2023-04-01T08:12:34.505Z,58.70
2023-04-01T08:15:48.647Z,59.97
2023-04-01T08:19:38.322Z,60.13
2023-04-01T08:22:57.585Z,60.84
2023-04-01T08:26:22.966Z,60.19
2023-04-01T08:29:16.190Z,58.77
2023-04-01T08:32:31.900Z,60.43
2023-04-01T08:35:41.682Z,60.98
2023-04-01T08:39:15.978Z,60.85
2023-04-01T08:42:30.439Z,61.25
2023-04-01T08:46:16.578Z,61.01
2023-04-01T08:49:57.062Z,60.56
2023-04-01T08:53:42.032Z,59.68
2023-04-01T08:56:56.507Z,59.24
2023-04-01T09:00:36.682Z,59.94
2023-04-01T09:04:12.562Z,59.23
2023-04-01T09:07:19.790Z,58.97
2023-04-01T09:10:27.124Z,59.78
2023-04-01T09:13:46.300Z,59.80
2023-04-01T09:18:09.664Z,58.99
2023-04-01T09:21:08.037Z,59.01
2023-04-01T09:24:31.719Z,59.08
2023-04-01T09:28:05.226Z,58.85
2023-04-01T09:31:16.439Z,58.47
2023-04-01T09:35:07.354Z,57.54
2023-04-01T09:38:15.944Z,57.22
2023-04-01T09:41:24.985Z,57.36
2023-04-01T09:45:58.146Z,57.60
2023-04-01T09:49:15.744Z,58.64
2023-04-01T09:53:08.671Z,57.96
2023-04-01T09:57:19.723Z,58.05
2023-04-01T10:01:11.547Z,57.39
2023-04-01T10:04:39.198Z,56.85
2023-04-01T10:08:55.201Z,57.62
2023-04-01T10:12:57.450Z,56.92
2023-04-01T10:16:55.768Z,57.53
2023-04-01T10:20:34.140Z,55.78
2023-04-01T10:24:20.319Z,57.26
2023-04-01T10:28:27.836Z,57.92
2023-04-01T10:32:17.137Z,54.00
2023-04-01T10:36:32.266Z,54.67
2023-04-01T10:40:28.813Z,55.30
2023-04-01T10:44:30.794Z,56.06
2023-04-01T10:48:46.733Z,57.22
2023-04-01T10:52:30.683Z,58.20
2023-04-01T10:56:15.164Z,58.47
2023-04-01T10:59:40.561Z,58.75
2023-04-01T11:02:52.450Z,59.05
2023-04-01T11:05:41.904Z,58.83
2023-04-01T11:09:12.067Z,59.21
2023-04-01T11:12:57.248Z,59.16
2023-04-01T11:15:50.557Z,58.33
2023-04-01T11:19:00.528Z,56.51
2023-04-01T11:22:11.351Z,56.59
2023-04-01T11:25:56.591Z,56.39
2023-04-01T11:29:59.214Z,55.53
2023-04-01T11:32:55.934Z,56.43
2023-04-01T11:35:50.562Z,56.00
2023-04-01T11:38:57.445Z,55.78
2023-04-01T11:42:32.630Z,53.78
2023-04-01T11:46:08.377Z,53.92
2023-04-01T11:49:28.075Z,52.77
2023-04-01T11:52:34.831Z,53.20
2023-04-01T11:55:18.097Z,52.21
2023-04-01T11:58:37.767Z,52.42
2023-04-01T12:02:11.035Z,52.60
2023-04-01T12:05:46.231Z,52.70
2023-04-01T12:08:34.955Z,52.70
2023-04-01T12:11:33.401Z,51.17
2023-04-01T12:15:22.356Z,51.12
2023-04-01T12:18:16.157Z,52.42
2023-04-01T12:20:54.246Z,52.93
2023-04-01T12:24:12.756Z,53.16
2023-04-01T12:27:30.616Z,53.87
2023-04-01T12:30:56.598Z,54.33
2023-04-01T12:34:14.054Z,55.37
2023-04-01T12:37:25.120Z,55.98
2023-04-01T12:40:04.444Z,56.27
2023-04-01T12:43:33.274Z,56.54
2023-04-01T12:46:35.793Z,57.27
2023-04-01T12:49:39.200Z,56.97
2023-04-01T12:53:04.285Z,57.05
2023-04-01T12:56:21.526Z,56.86
2023-04-01T12:59:55.324Z,53.91
2023-04-01T13:03:24.458Z,52.72
2023-04-01T13:06:43.804Z,52.52
2023-04-01T13:09:41.583Z,53.73
2023-04-01T13:13:11.468Z,54.56
2023-04-01T13:15:43.425Z,55.45
2023-04-01T13:18:55.738Z,57.08
2023-04-01T13:21:52.536Z,58.04
2023-04-01T13:25:23.193Z,59.47
2023-04-01T13:29:09.732Z,61.35
2023-04-01T13:32:43.485Z,63.25
2023-04-01T13:35:51.869Z,61.20
2023-04-01T13:39:44.985Z,58.33
2023-04-01T13:43:39.952Z,58.80
2023-04-01T13:46:53.417Z,59.09
2023-04-01T13:50:42.736Z,57.58
2023-04-01T13:54:03.565Z,57.58
2023-04-01T13:57:44.139Z,57.34
2023-04-01T14:01:30.828Z,57.96
2023-04-01T14:05:14.231Z,58.00
2023-04-01T14:09:22.818Z,58.16
2023-04-01T14:13:29.715Z,58.80
2023-04-01T14:17:25.634Z,59.43
2023-04-01T14:21:20.130Z,59.77
2023-04-01T14:24:43.436Z,60.45
2023-04-01T14:28:05.280Z,60.48
2023-04-01T14:31:41.890Z,61.14
2023-04-01T14:35:23.086Z,62.65
2023-04-01T14:38:41.640Z,66.85
2023-04-01T14:42:22.564Z,68.37
2023-04-01T14:46:12.772Z,63.37
2023-04-01T14:50:08.137Z,57.41
2023-04-01T14:53:33.447Z,56.63
2023-04-01T14:56:43.339Z,56.15
2023-04-01T14:59:52.279Z,56.90
2023-04-01T15:03:23.173Z,57.24
2023-04-01T15:06:49.901Z,57.55
2023-04-01T15:10:23.985Z,59.27
2023-04-01T15:14:21.477Z,60.11
2023-04-01T15:17:31.646Z,61.44
2023-04-01T15:21:01.478Z,61.92
2023-04-01T15:24:18.870Z,63.27
2023-04-01T15:27:54.243Z,61.89
2023-04-01T15:31:18.748Z,61.70
2023-04-01T15:34:43.007Z,57.96
2023-04-01T15:37:37.889Z,57.11
2023-04-01T15:40:49.948Z,57.78
2023-04-01T15:43:58.060Z,57.60
2023-04-01T15:46:47.170Z,59.38
2023-04-01T15:49:47.305Z,59.75
2023-04-01T15:53:39.456Z,61.61
2023-04-01T15:57:29.654Z,61.38
2023-04-01T16:00:40.881Z,60.46
2023-04-01T16:03:36.229Z,60.20
2023-04-01T16:06:55.580Z,60.49
2023-04-01T16:09:58.397Z,60.26
2023-04-01T16:13:45.461Z,60.59
2023-04-01T16:17:32.271Z,62.13
2023-04-01T16:21:08.252Z,69.72
2023-04-01T16:23:57.490Z,68.08
2023-04-01T16:27:01.248Z,65.47
2023-04-01T16:30:04.772Z,63.40
2023-04-01T16:33:25.951Z,61.85
2023-04-01T16:36:13.033Z,60.74
2023-04-01T16:39:24.139Z,59.71
2023-04-01T16:42:32.253Z,57.35
2023-04-01T16:45:10.152Z,57.52
2023-04-01T16:47:42.350Z,58.58
2023-04-01T16:51:01.485Z,59.34
2023-04-01T16:53:47.246Z,59.67
2023-04-01T16:56:29.027Z,59.97
2023-04-01T16:59:07.628Z,60.39
2023-04-01T17:02:02.179Z,60.14
2023-04-01T17:05:14.195Z,59.73
2023-04-01T17:08:28.584Z,60.19
2023-04-01T17:12:06.381Z,61.33
2023-04-01T17:14:59.236Z,61.74
2023-04-01T17:17:50.550Z,61.65
2023-04-01T17:21:08.531Z,62.35
2023-04-01T17:23:53.992Z,70.04
2023-04-01T17:27:02.989Z,71.24
2023-04-01T17:29:37.152Z,68.93
2023-04-01T17:32:24.846Z,66.52
2023-04-01T17:36:13.034Z,64.80
2023-04-01T17:40:10.059Z,63.29
2023-04-01T17:43:34.405Z,61.83
2023-04-01T17:46:27.177Z,60.93
2023-04-01T17:49:35.622Z,60.22
2023-04-01T17:52:57.928Z,57.75
2023-04-01T17:56:06.520Z,57.98
2023-04-01T17:59:22.644Z,58.75
2023-04-01T18:02:25.690Z,60.15
2023-04-01T18:05:16.471Z,60.47
2023-04-01T18:08:18.972Z,59.94
2023-04-01T18:11:34.350Z,62.33
2023-04-01T18:14:24.421Z,67.30
2023-04-01T18:17:24.704Z,68.59
2023-04-01T18:20:33.633Z,63.21
2023-04-01T18:23:28.851Z,63.15
2023-04-01T18:26:38.284Z,62.69
2023-04-01T18:29:23.335Z,63.48
2023-04-01T18:31:56.540Z,62.89
2023-04-01T18:35:54.548Z,62.64
2023-04-01T18:39:01.748Z,62.45
2023-04-01T18:42:21.534Z,62.38
2023-04-01T18:44:52.616Z,62.85
2023-04-01T18:47:48.089Z,63.65
2023-04-01T18:50:59.565Z,63.27
2023-04-01T18:53:48.572Z,63.24
2023-04-01T18:56:45.126Z,63.81
2023-04-01T18:59:16.914Z,64.33
2023-04-01T19:02:22.594Z,64.21
2023-04-01T19:05:01.455Z,63.18
2023-04-01T19:07:38.748Z,63.82
2023-04-01T19:11:04.382Z,63.53
2023-04-01T19:14:05.522Z,63.23
2023-04-01T19:17:04.943Z,63.08
2023-04-01T19:19:52.562Z,62.73
2023-04-01T19:23:25.218Z,62.38
2023-04-01T19:25:58.555Z,61.97
2023-04-01T19:28:53.190Z,61.61
2023-04-01T19:31:57.662Z,61.48
2023-04-01T19:34:44.408Z,60.53
2023-04-01T19:37:35.308Z,60.70
2023-04-01T19:40:09.965Z,59.54
2023-04-01T19:42:55.364Z,59.13
2023-04-01T19:45:57.257Z,60.87
2023-04-01T19:48:50.004Z,61.06
2023-04-01T19:52:08.204Z,62.90
2023-04-01T19:55:37.963Z,66.75
2023-04-01T19:58:38.371Z,67.66
2023-04-01T20:01:06.731Z,66.34
2023-04-01T20:03:48.903Z,65.50
2023-04-01T20:06:52.169Z,65.41
2023-04-01T20:09:50.525Z,64.66
2023-04-01T20:12:43.771Z,64.26
2023-04-01T20:15:33.945Z,63.74
2023-04-01T20:18:57.092Z,63.23
2023-04-01T20:21:58.236Z,63.26
2023-04-01T20:24:32.967Z,63.26
2023-04-01T20:27:11.039Z,63.01
2023-04-01T20:30:41.881Z,62.98
2023-04-01T20:33:36.740Z,63.22
2023-04-01T20:37:12.456Z,63.23
2023-04-01T20:40:09.227Z,62.94
2023-04-01T20:42:55.634Z,62.94
2023-04-01T20:45:44.832Z,63.28
2023-04-01T20:48:35.399Z,63.14
2023-04-01T20:51:11.406Z,62.98
2023-04-01T20:54:21.881Z,62.91
2023-04-01T20:58:04.212Z,62.81
2023-04-01T21:00:57.727Z,62.28
2023-04-01T21:03:40.293Z,62.86
2023-04-01T21:06:39.873Z,62.21
2023-04-01T21:09:49.611Z,62.56
2023-04-01T21:12:43.586Z,62.58
2023-04-01T21:15:48.654Z,63.24
2023-04-01T21:18:35.478Z,63.22
2023-04-01T21:21:17.161Z,63.57
2023-04-01T21:24:03.015Z,63.37
2023-04-01T21:27:11.781Z,63.19
2023-04-01T21:30:17.746Z,63.38
2023-04-01T21:34:13.856Z,62.60
2023-04-01T21:37:16.074Z,63.48
2023-04-01T21:40:38.266Z,62.70
2023-04-01T21:43:47.402Z,63.62
2023-04-01T21:46:56.923Z,63.72
2023-04-01T21:50:18.580Z,63.92
2023-04-01T21:53:11.259Z,64.49
2023-04-01T21:56:14.099Z,64.79
2023-04-01T21:59:42.633Z,64.22
2023-04-01T22:02:28.331Z,64.52
2023-04-01T22:05:24.514Z,64.45
2023-04-01T22:08:27.984Z,63.76
2023-04-01T22:12:02.478Z,64.04
2023-04-01T22:15:04.766Z,63.92
2023-04-01T22:18:05.330Z,63.80
2023-04-01T22:21:40.692Z,63.82
2023-04-01T22:24:38.765Z,64.23
2023-04-01T22:27:48.352Z,64.37
2023-04-01T22:30:26.983Z,63.84
2023-04-01T22:33:44.431Z,64.20
2023-04-01T22:36:55.870Z,64.00
2023-04-01T22:39:45.143Z,63.69
2023-04-01T22:42:43.340Z,63.49
2023-04-01T22:45:53.658Z,63.98
2023-04-01T22:48:39.517Z,64.14
2023-04-01T22:51:39.081Z,63.88
2023-04-01T22:54:17.040Z,63.71
2023-04-01T22:57:14.212Z,63.65
2023-04-01T23:00:12.917Z,63.59
2023-04-01T23:02:43.703Z,63.76
2023-04-01T23:05:16.224Z,63.82
2023-04-01T23:07:54.070Z,63.78
2023-04-01T23:10:38.587Z,63.68
2023-04-01T23:13:06.918Z,63.58
2023-04-01T23:15:35.505Z,63.41
2023-04-01T23:18:25.681Z,63.22
2023-04-01T23:21:02.917Z,63.01
2023-04-01T23:23:46.477Z,62.56
2023-04-01T23:27:04.179Z,63.13
2023-04-01T23:29:32.394Z,63.11
2023-04-01T23:32:06.852Z,62.79
2023-04-01T23:34:59.224Z,62.34
2023-04-01T23:37:27.344Z,63.09
2023-04-01T23:40:16.276Z,63.42
2023-04-01T23:42:44.528Z,63.21
2023-04-01T23:45:18.457Z,62.92
2023-04-01T23:47:50.528Z,62.96
2023-04-01T23:50:39.103Z,62.98
2023-04-01T23:53:26.129Z,63.04
2023-04-01T23:55:55.207Z,63.02
2023-04-01T23:58:27.297Z,62.85
